Aktualne dane pomiarowe

Uwaga, wersja testowa! Automatyczne pobieranie danych za pomocą narzędzi lub skryptów to umożliwiających jest zabronione.

Dane meteo z obszaru Polski uzyskane na podstawie depesz SYNOP pobieranych co godzinę z NWS. Najedź myszką na symbol przedstawiony w tabeli, aby uzyskać informacje co do jego znaczenia. Prosimy pamiętać, że to testowa wersja strony, która jeszcze nie jest ukończona. Stworzono również jest krótki FAQ dotyczący korzystania z tej podstrony Anomalie temperatury w chwili obecnej odniesione są do okresu referencyjnego 1951-2016. Okres ten będzie później zmieniony na 1981-2010. Kliknij ikonę aby pobrać plik CSV. Kliknij ikonę aby wygenerować mapę synoptyczną dla danego terminu.

Wybierz Datę:    

        

Tomaszów Mazowiecki (12466)

Dane terminowe dla wybranej stacji. Kliknij datę, aby otrzymać dane z tego terminu dla wszystkich stacji.

TemperaturaZachmurzenieWiatrCiśnienieOpadyPogoda
 Data t td wb tx tn tg rh  Nt Nl Cl Cm Ch ws wd g1 g2 wx mslp ppp ch 24h 12h t ww ww w1 w2  
2019-07-12 23:00:00 17.2 11.3 13.5--- 68---2wx---1009.6 988.1----------
2019-07-12 22:00:00 18.3 10.2 13.4--- 59---3wx---1009.4 988.0----------
2019-07-12 21:00:00 18.2 11.3 13.9--- 64---3wx---1009.5 988.1----------
2019-07-12 20:00:00 18.9 11.0 14.0--- 60---2wx---1009.4 988.1----------
2019-07-12 19:00:00 20.3 11.0 14.6--- 55---3wx---1009.1 987.9----------
2019-07-12 18:00:00 22.4 6.2 13.5--- 35---1wx---1008.2 987.2----------
2019-07-12 17:00:00 24.1 6.4 14.3--- 32---1wx---1008.1 987.2----------
2019-07-12 16:00:00 25.4 5.2 14.4--- 27---1wx---1007.9 987.1----------
2019-07-12 15:00:00 25.4 5.6 14.5--- 28---2wx---1008.1 987.3----------
2019-07-12 14:00:00 25.3 5.5 14.4--- 2810.0wxwxwxwx1wx---1008.6 987.8 -1.0---------
2019-07-12 13:00:00 25.0 6.3 14.6--- 3010.0wxwxwxwx1----1009.0 988.1 -0.9---------
2019-07-12 12:00:00 24.4 5.3 14.0--- 2910.0wxwxwxwx1wx---1009.1 988.2 -1.0---------
2019-07-12 11:00:00 23.7 6.9 14.3--- 3410.0wxwxwxwx1----1009.8 988.8 -0.6---------
2019-07-12 10:00:00 22.8 7.4 14.1--- 3710.0wxwxwxwx2wx---1010.1 989.0 -0.7---------
2019-07-12 09:00:00 22.5 7.1 13.9--- 3710.0wxwxwxwx1----1010.3 989.2 -0.7---------
2019-07-12 08:00:00 21.8 8.0 14.0--- 4110.0wxwxwxwx1----1010.5 989.4 -0.5---------
2019-07-12 07:00:00 19.7 8.1 13.1--- 4710.0wx-wx1----1011.0 989.7 -0.3---------
2019-07-12 06:00:00 16.4 8.6 11.8--- 6010.0wx-wx1----1011.5 989.9 -0.1---------
2019-07-12 05:00:00 13.9 9.9 11.3--- 7710.0wx-wx1wx---1011.7 989.9 -0.3---------
2019-07-12 04:00:00 10.7 8.6 9.3--- 8710.0wx-wx1wx---1011.9 989.9 -0.3---------
2019-07-12 03:00:00 8.6 7.4 7.8--- 9210.0wx-wx1wx---1012.2 990.0 -0.3---------
2019-07-12 02:00:00 9.7 8.0 8.5--- 89---2wx---1012.2 990.1----------
2019-07-12 01:00:00 10.4 8.5 9.1--- 88---0wx---1012.2 990.2----------
2019-07-12 00:00:00 10.4 8.2 8.9--- 86---0wx---1012.3 990.3----------
2019-07-11 23:00:00 11.8 8.7 9.8--- 81---1wx---1012.5 990.6----------
2019-07-11 22:00:00 12.9 9.0 10.4--- 77---2wx---1012.4 990.6----------
2019-07-11 21:00:00 11.8 8.1 9.5--- 7810.0wx-wx1----1012.5 990.6 0.6---------
2019-07-11 20:00:00 13.8 7.6 10.1--- 6610.0wx-wx1----1012.2 990.4 0.2---------
2019-07-11 19:00:00 15.8 7.3 10.9--- 5710.0wx-wx1----1011.8 990.2 0.0---------
2019-07-11 17:00:00 18.8 7.0 12.2--- 4610.0wxwxwxwx2wx---1011.6 990.2 -0.1---------
2019-07-11 16:00:00 18.8 7.0 12.2--- 4610.0wxwxwxwx4wx---1011.6 990.2 -0.3---------
2019-07-11 15:00:00 19.2 6.0 12.0--- 4210.0wxwxwxwx5wx---1011.6 990.2 -0.4---------
2019-07-11 14:00:00 19.7 5.8 12.1--- 4010.0wxwxwxwx4wx---1011.6 990.3 -0.2---------
2019-07-11 13:00:00 18.4 6.6 11.8--- 4610.0wxwxwxwx3wx---1011.9 990.5 -0.2---------
2019-07-11 12:00:00 17.2 7.6 11.7--- 5310.0wxwxwx3wx---1012.1 990.6 -0.4---------
2019-07-11 11:00:00 16.9 7.5 11.5--- 5410.0wxwxwx4wx---1012.0 990.5 -0.1---------
2019-07-11 10:00:00 16.2 8.0 11.4--- 5810.0wxwxwx5wx---1012.4 990.8 0.4---------
2019-07-11 09:00:00 13.9 10.1 11.4--- 7810.0wxwxwx4wx---1012.8 991.0 0.8---------
2019-07-11 08:00:00 13.5 9.9 11.2--- 7910.0wxwxwx4wx---1012.4 990.6 0.6---------
2019-07-11 07:00:00 13.0 10.7 11.4--- 8610.0wxwxwx4wx---1012.2 990.4 0.6---------
2019-07-11 06:00:00 12.0 11.1 11.3--- 9410.0wxwxwx2wx---1012.1 990.2 0.5---------
2019-07-11 05:00:00 11.8 11.0 11.2--- 9510.0wxwxwx2wx---1011.8 989.9 0.1---------
2019-07-11 04:00:00 11.2 10.7 10.8--- 9710.0wxwxwx2wx---1011.8 989.8 -0.6---------
2019-07-11 03:00:00 10.9 10.4 10.5--- 9710.0wxwxwxwx2wx---1011.7 989.7 -0.9---------
1.1 ms

 

Print Friendly, PDF & Email